Time;durP1;ratioP1;P1;durP2;ratioP2;P2;SDS_P1;SDS_P2;PMS_P1;PMS_P2;Temp;Humidity;BMP_temperature;BMP_pressure;BME280_temperature;BME280_humidity;BME280_pressure;Samples;Min_cycle;Max_cycle;Signal;HPM_P1;HPM_P2
2022/03/05 00:00:52;;;;;;;30.15;17.00;;;5.40;99.90;;;;;;4967292;28;20111;-72
2022/03/05 00:03:18;;;;;;;25.88;16.08;;;5.40;99.90;;;;;;4970675;28;20022;-72
2022/03/05 00:05:44;;;;;;;23.52;15.82;;;5.40;99.90;;;;;;4992230;28;20027;-71
2022/03/05 00:08:11;;;;;;;38.47;19.35;;;5.40;99.90;;;;;;4974357;28;20041;-70
2022/03/05 00:10:52;;;;;;;29.95;17.67;;;5.40;99.90;;;;;;4990983;28;20022;-73
2022/03/05 00:13:24;;;;;;;29.30;17.48;;;5.30;99.90;;;;;;4988488;28;20199;-71
2022/03/05 00:15:51;;;;;;;27.80;18.65;;;5.30;99.90;;;;;;4985225;28;20400;-72
2022/03/05 00:18:17;;;;;;;29.95;18.25;;;5.40;99.90;;;;;;4974764;28;20121;-72
2022/03/05 00:20:45;;;;;;;29.35;18.02;;;5.40;99.90;;;;;;4969541;28;21004;-72
2022/03/05 00:23:14;;;;;;;24.92;18.00;;;5.30;99.90;;;;;;4987981;28;20521;-71
2022/03/05 00:25:40;;;;;;;31.92;21.52;;;5.30;99.90;;;;;;4968994;28;20113;-72
2022/03/05 00:28:06;;;;;;;29.98;18.42;;;5.30;99.90;;;;;;4985667;28;20445;-71
2022/03/05 00:30:32;;;;;;;27.73;16.23;;;5.30;99.90;;;;;;4988136;28;20077;-71
2022/03/05 00:32:59;;;;;;;35.13;20.02;;;5.20;99.90;;;;;;4971058;28;20026;-70
2022/03/05 00:35:25;;;;;;;30.73;20.92;;;5.20;99.90;;;;;;4991926;28;20034;-71
2022/03/05 00:37:50;;;;;;;30.52;17.90;;;5.20;99.90;;;;;;4986686;28;20034;-72
2022/03/05 00:40:16;;;;;;;35.40;22.45;;;5.20;99.90;;;;;;4972729;28;20039;-71
2022/03/05 00:42:42;;;;;;;32.05;21.23;;;5.20;99.90;;;;;;4972498;28;20030;-71
2022/03/05 00:45:08;;;;;;;26.58;16.20;;;5.20;99.90;;;;;;4970626;28;20026;-71
2022/03/05 00:47:35;;;;;;;36.17;20.95;;;5.20;99.90;;;;;;4974573;28;20042;-73
2022/03/05 00:50:02;;;;;;;32.85;19.35;;;5.20;99.90;;;;;;4973081;28;20045;-71
2022/03/05 00:52:28;;;;;;;32.08;21.27;;;5.10;99.90;;;;;;4970860;28;20034;-72
2022/03/05 00:54:54;;;;;;;25.75;16.98;;;5.20;99.90;;;;;;4978074;28;21344;-72
2022/03/05 00:57:20;;;;;;;29.50;20.35;;;5.10;99.90;;;;;;4979276;28;20323;-72
2022/03/05 00:59:46;;;;;;;31.63;20.80;;;5.10;99.90;;;;;;4987871;28;20081;-72
2022/03/05 01:02:11;;;;;;;30.58;20.48;;;5.10;99.90;;;;;;4988039;28;20018;-71
2022/03/05 01:04:37;;;;;;;33.63;19.33;;;5.10;99.90;;;;;;4992553;28;20074;-72
2022/03/05 01:07:03;;;;;;;28.70;20.05;;;5.10;99.90;;;;;;4989110;28;20030;-72
2022/03/05 01:09:29;;;;;;;30.63;19.45;;;5.10;99.90;;;;;;4991860;28;20041;-72
2022/03/05 01:11:54;;;;;;;31.45;21.30;;;5.10;99.90;;;;;;4973258;28;20102;-72
2022/03/05 01:14:20;;;;;;;31.20;20.35;;;5.00;99.90;;;;;;4974062;28;20605;-72
2022/03/05 01:16:46;;;;;;;28.92;16.98;;;5.00;99.90;;;;;;4973822;28;20041;-71
2022/03/05 01:19:12;;;;;;;28.13;19.15;;;5.00;99.90;;;;;;4971972;28;20506;-72
2022/03/05 01:21:38;;;;;;;26.60;19.08;;;5.00;99.90;;;;;;4990814;28;20100;-73
2022/03/05 01:24:04;;;;;;;26.95;16.95;;;5.00;99.90;;;;;;4987669;28;20022;-71
2022/03/05 01:26:30;;;;;;;27.63;18.42;;;5.00;99.90;;;;;;4990323;28;20100;-72
2022/03/05 01:28:56;;;;;;;27.33;15.80;;;5.00;99.90;;;;;;4989594;28;20140;-73
2022/03/05 01:31:22;;;;;;;25.08;16.40;;;5.00;99.90;;;;;;4990808;28;20141;-72
2022/03/05 01:33:48;;;;;;;28.20;17.42;;;5.00;99.90;;;;;;4991036;28;20350;-72
2022/03/05 01:36:14;;;;;;;23.88;16.30;;;5.00;99.90;;;;;;4972044;28;20038;-72
2022/03/05 01:38:40;;;;;;;26.35;17.08;;;5.10;99.90;;;;;;4969378;28;20027;-71
2022/03/05 01:41:05;;;;;;;22.33;13.80;;;5.00;99.90;;;;;;4982953;28;20029;-73
2022/03/05 01:43:31;;;;;;;23.40;15.68;;;5.10;99.90;;;;;;4986112;28;20065;-70
2022/03/05 01:45:57;;;;;;;19.23;12.48;;;5.00;99.90;;;;;;4991234;28;20052;-72
2022/03/05 01:48:23;;;;;;;22.23;14.70;;;5.00;99.90;;;;;;4971920;28;20033;-72
2022/03/05 01:50:48;;;;;;;22.40;15.50;;;5.00;99.90;;;;;;4988202;28;20026;-71
2022/03/05 01:53:14;;;;;;;22.80;15.75;;;5.10;99.90;;;;;;4986780;28;20037;-71
2022/03/05 01:55:42;;;;;;;26.35;16.13;;;5.10;99.90;;;;;;4973563;28;20113;-71
2022/03/05 01:58:08;;;;;;;25.70;14.00;;;5.00;99.90;;;;;;4973756;28;20026;-71
2022/03/05 02:00:34;;;;;;;26.58;16.45;;;5.00;99.90;;;;;;4973459;28;20034;-71
2022/03/05 02:02:59;;;;;;;24.05;16.65;;;5.10;99.90;;;;;;4973620;28;20125;-71
2022/03/05 02:05:26;;;;;;;19.52;12.48;;;5.00;99.90;;;;;;4973489;28;20463;-72
2022/03/05 02:07:51;;;;;;;21.52;14.15;;;5.10;99.90;;;;;;4989442;28;20053;-72
2022/03/05 02:10:17;;;;;;;22.08;15.13;;;5.10;99.90;;;;;;4985933;28;20058;-72
2022/03/05 02:12:44;;;;;;;25.17;16.50;;;5.00;99.90;;;;;;4972910;28;20064;-71
2022/03/05 02:15:11;;;;;;;22.38;15.07;;;5.10;99.90;;;;;;4971540;28;21579;-71
2022/03/05 02:17:37;;;;;;;25.02;15.63;;;4.90;99.90;;;;;;4972424;28;20065;-71
2022/03/05 02:20:05;;;;;;;23.20;15.18;;;4.90;99.90;;;;;;4968239;28;20500;-71
2022/03/05 02:22:31;;;;;;;23.17;14.57;;;4.90;99.90;;;;;;4985005;28;20052;-71
2022/03/05 02:25:02;;;;;;;17.98;11.82;;;4.90;99.90;;;;;;4968000;28;20052;-72
2022/03/05 02:27:30;;;;;;;18.70;13.13;;;4.90;99.90;;;;;;4972447;28;20053;-70
2022/03/05 02:29:56;;;;;;;17.98;13.25;;;4.80;99.90;;;;;;4968587;28;20034;-72
2022/03/05 02:32:23;;;;;;;19.00;13.85;;;4.80;99.90;;;;;;4989805;28;20502;-72
2022/03/05 02:34:49;;;;;;;24.13;14.85;;;4.80;99.90;;;;;;4972760;28;20258;-71
2022/03/05 02:37:16;;;;;;;19.10;13.93;;;4.80;99.90;;;;;;4983887;28;20535;-71
2022/03/05 02:39:43;;;;;;;22.27;13.70;;;4.80;99.90;;;;;;4986259;28;20318;-72
2022/03/05 02:42:09;;;;;;;18.75;13.10;;;4.80;99.90;;;;;;4968030;28;20079;-72
2022/03/05 02:44:35;;;;;;;21.98;14.00;;;4.90;99.90;;;;;;4971087;28;20451;-70
2022/03/05 02:47:01;;;;;;;25.23;13.98;;;4.90;99.90;;;;;;4969076;28;20019;-72
2022/03/05 02:49:27;;;;;;;18.42;11.95;;;4.80;99.90;;;;;;4989165;28;20038;-72
2022/03/05 02:51:53;;;;;;;23.20;14.00;;;4.80;99.90;;;;;;4990319;28;20408;-72
2022/03/05 02:54:19;;;;;;;17.02;13.00;;;4.80;99.90;;;;;;4972429;28;20092;-71
2022/03/05 02:56:46;;;;;;;20.45;12.88;;;4.80;99.90;;;;;;4988874;28;20058;-71
2022/03/05 02:59:12;;;;;;;19.77;12.40;;;4.80;99.90;;;;;;4989173;28;20057;-72
2022/03/05 03:01:38;;;;;;;15.18;10.75;;;4.80;99.90;;;;;;4985519;28;20101;-71
2022/03/05 03:04:04;;;;;;;24.20;13.85;;;4.80;99.90;;;;;;4968810;28;20030;-73
2022/03/05 03:06:30;;;;;;;14.57;10.98;;;4.80;99.90;;;;;;5000854;28;20042;-72
2022/03/05 03:08:55;;;;;;;19.85;13.30;;;4.80;99.90;;;;;;5004204;28;20072;-71
2022/03/05 03:11:21;;;;;;;20.58;11.98;;;4.70;99.90;;;;;;4985742;28;20053;-71
2022/03/05 03:13:47;;;;;;;19.90;11.95;;;4.80;99.90;;;;;;5000608;28;20088;-71
2022/03/05 03:16:13;;;;;;;19.95;13.05;;;4.70;99.90;;;;;;4981253;28;20081;-72
2022/03/05 03:18:39;;;;;;;18.60;12.80;;;4.70;99.90;;;;;;4983613;28;20092;-71
2022/03/05 03:21:05;;;;;;;17.17;12.55;;;4.70;99.90;;;;;;4997808;28;20019;-72
2022/03/05 03:23:30;;;;;;;16.85;12.82;;;4.70;99.90;;;;;;5001995;28;20404;-72
2022/03/05 03:25:56;;;;;;;20.13;14.15;;;4.80;99.90;;;;;;5003141;28;20548;-73
2022/03/05 03:28:22;;;;;;;20.92;13.70;;;4.80;99.90;;;;;;4988965;28;20057;-71
2022/03/05 03:30:48;;;;;;;16.60;11.90;;;4.70;99.90;;;;;;4999370;28;20027;-71
2022/03/05 03:33:14;;;;;;;20.50;12.40;;;4.80;99.90;;;;;;4987136;28;20038;-72
2022/03/05 03:35:39;;;;;;;19.42;13.48;;;4.70;99.90;;;;;;5004199;28;20025;-71
2022/03/05 03:38:05;;;;;;;20.73;14.20;;;4.70;99.90;;;;;;5004117;28;20089;-72
2022/03/05 03:40:31;;;;;;;24.00;14.10;;;4.70;99.90;;;;;;5006459;28;20101;-72
2022/03/05 03:42:57;;;;;;;19.35;12.98;;;4.60;99.90;;;;;;5006015;28;20046;-72
2022/03/05 03:45:23;;;;;;;17.98;11.82;;;4.60;99.90;;;;;;5003988;28;20030;-73
2022/03/05 03:47:51;;;;;;;20.73;12.13;;;4.60;99.90;;;;;;4983406;28;20022;-72
2022/03/05 03:50:19;;;;;;;19.58;12.70;;;4.70;99.90;;;;;;4993002;28;20030;-72
2022/03/05 03:52:46;;;;;;;18.20;11.40;;;4.60;99.90;;;;;;4989055;28;20508;-72
2022/03/05 03:55:15;;;;;;;20.27;13.02;;;4.60;99.90;;;;;;4992382;28;20401;-70
2022/03/05 03:57:41;;;;;;;15.98;12.43;;;4.60;99.90;;;;;;4975205;28;20080;-71
2022/03/05 04:00:10;;;;;;;16.02;11.45;;;4.60;99.90;;;;;;4971260;28;20058;-72
2022/03/05 04:02:36;;;;;;;13.63;9.88;;;4.60;99.90;;;;;;4974454;28;20600;-72
2022/03/05 04:05:03;;;;;;;16.33;11.90;;;4.50;99.90;;;;;;4973850;28;20121;-72
2022/03/05 04:10:12;;;;;;;14.35;10.70;;;4.50;99.90;;;;;;4991338;28;20048;-70
2022/03/05 04:12:38;;;;;;;16.33;12.00;;;4.50;99.90;;;;;;4992861;28;20034;-71
2022/03/05 04:15:04;;;;;;;17.35;11.63;;;4.40;99.90;;;;;;4987724;28;20031;-71
2022/03/05 04:17:30;;;;;;;15.65;11.32;;;4.50;99.90;;;;;;4969872;28;20033;-71
2022/03/05 04:19:56;;;;;;;17.00;11.43;;;4.50;99.90;;;;;;4986988;28;20018;-70
2022/03/05 04:22:22;;;;;;;18.27;12.73;;;4.40;99.90;;;;;;4991491;28;20026;-72
2022/03/05 04:24:48;;;;;;;20.55;11.93;;;4.30;99.90;;;;;;4991179;28;20015;-72
2022/03/05 04:27:14;;;;;;;17.92;11.85;;;4.30;99.90;;;;;;4966762;28;20030;-72
2022/03/05 04:29:40;;;;;;;22.02;12.60;;;4.20;99.90;;;;;;4988148;28;20117;-71
2022/03/05 04:32:07;;;;;;;16.10;11.30;;;4.20;99.90;;;;;;4973708;28;20061;-71
2022/03/05 04:34:33;;;;;;;16.00;11.30;;;4.20;99.90;;;;;;4992149;28;20030;-72
2022/03/05 04:36:59;;;;;;;12.98;9.70;;;4.30;99.90;;;;;;4992739;28;20455;-71
2022/03/05 04:39:25;;;;;;;18.90;11.02;;;4.20;99.90;;;;;;4991638;28;20061;-72
2022/03/05 04:41:52;;;;;;;16.98;10.98;;;4.30;99.90;;;;;;4991784;28;20248;-71
2022/03/05 04:44:17;;;;;;;17.80;10.82;;;4.30;99.90;;;;;;4990595;28;20019;-71
2022/03/05 04:46:43;;;;;;;14.88;10.57;;;4.30;99.90;;;;;;4987476;28;20342;-71
2022/03/05 04:49:10;;;;;;;15.48;11.10;;;4.30;99.90;;;;;;4969861;28;20571;-72
2022/03/05 04:51:36;;;;;;;12.75;10.65;;;4.40;99.90;;;;;;4974381;28;20117;-72
2022/03/05 04:54:02;;;;;;;14.30;9.52;;;4.40;99.90;;;;;;4991385;28;20030;-72
2022/03/05 04:56:28;;;;;;;11.00;8.77;;;4.40;99.90;;;;;;4991074;28;20112;-71
2022/03/05 04:58:53;;;;;;;14.52;9.48;;;4.50;99.90;;;;;;4974026;28;20034;-71
2022/03/05 05:01:19;;;;;;;13.77;10.15;;;4.40;99.90;;;;;;4991859;28;20023;-71
2022/03/05 05:03:45;;;;;;;17.50;10.68;;;4.50;99.90;;;;;;4986383;28;20362;-72
2022/03/05 05:06:11;;;;;;;17.08;10.50;;;4.50;99.90;;;;;;4973377;28;20031;-72
2022/03/05 05:08:38;;;;;;;13.85;10.45;;;4.40;99.90;;;;;;4991790;28;20054;-73
2022/03/05 05:11:03;;;;;;;17.27;10.60;;;4.30;99.90;;;;;;4973578;28;20102;-71
2022/03/05 05:13:29;;;;;;;12.07;10.30;;;4.30;99.90;;;;;;4990362;28;20117;-71
2022/03/05 05:15:56;;;;;;;18.48;13.07;;;4.20;99.90;;;;;;4991751;28;20433;-71
2022/03/05 05:18:22;;;;;;;16.95;12.43;;;4.20;99.90;;;;;;4973751;28;20042;-72
2022/03/05 05:20:48;;;;;;;16.17;11.93;;;4.20;99.90;;;;;;4988596;28;20385;-73
2022/03/05 05:23:14;;;;;;;16.73;11.95;;;4.10;99.90;;;;;;4991243;28;20037;-72
2022/03/05 05:25:39;;;;;;;14.38;10.98;;;4.00;99.90;;;;;;4990959;28;20138;-73
2022/03/05 05:28:06;;;;;;;17.92;10.55;;;4.20;99.90;;;;;;4990534;28;20046;-72
2022/03/05 05:30:32;;;;;;;15.25;11.02;;;4.20;99.90;;;;;;4989241;28;20041;-71
2022/03/05 05:32:58;;;;;;;17.23;11.02;;;4.20;99.90;;;;;;4988234;28;20044;-73
2022/03/05 05:35:24;;;;;;;15.25;11.32;;;4.10;99.90;;;;;;4974723;28;20037;-71
2022/03/05 05:37:50;;;;;;;15.32;10.88;;;4.20;99.90;;;;;;4993342;28;20497;-71
2022/03/05 05:40:15;;;;;;;17.05;12.68;;;4.20;99.90;;;;;;4991800;28;20639;-72
2022/03/05 05:42:42;;;;;;;14.23;10.57;;;4.20;99.90;;;;;;4991318;28;20026;-71
2022/03/05 05:45:09;;;;;;;16.90;12.18;;;4.10;99.90;;;;;;4975969;28;20030;-72
2022/03/05 05:47:35;;;;;;;17.67;12.52;;;4.30;99.90;;;;;;4973999;28;20125;-73
2022/03/05 05:50:01;;;;;;;20.00;12.45;;;4.20;99.90;;;;;;4978232;28;20045;-72
2022/03/05 05:52:27;;;;;;;14.85;12.00;;;4.20;99.90;;;;;;4974985;28;20045;-72
2022/03/05 05:54:52;;;;;;;15.43;10.57;;;4.20;99.90;;;;;;4994125;28;20039;-72
2022/03/05 05:57:18;;;;;;;16.90;12.82;;;4.30;99.90;;;;;;4994088;28;20030;-73
2022/03/05 05:59:44;;;;;;;15.82;11.73;;;4.30;99.90;;;;;;4991704;28;20030;-71
2022/03/05 06:02:10;;;;;;;22.17;15.25;;;4.30;99.90;;;;;;4973709;28;20027;-72
2022/03/05 06:04:35;;;;;;;20.08;13.32;;;4.20;99.90;;;;;;4971214;28;20424;-73
2022/03/05 06:07:01;;;;;;;15.43;11.30;;;4.30;99.90;;;;;;4992624;28;20483;-71
2022/03/05 06:09:27;;;;;;;16.65;11.77;;;4.40;99.90;;;;;;4993899;28;20058;-72
2022/03/05 06:11:53;;;;;;;18.35;14.18;;;4.40;99.90;;;;;;4976103;28;20125;-72
2022/03/05 06:14:19;;;;;;;17.98;12.18;;;4.40;99.90;;;;;;4977503;28;20430;-73
2022/03/05 06:16:45;;;;;;;16.45;12.55;;;4.40;99.90;;;;;;4994632;28;20125;-72
2022/03/05 06:19:11;;;;;;;18.38;12.60;;;4.40;99.90;;;;;;4993324;28;20050;-72
2022/03/05 06:21:37;;;;;;;17.17;12.48;;;4.40;99.90;;;;;;4994022;28;20408;-72
2022/03/05 06:24:03;;;;;;;14.43;10.95;;;4.50;99.90;;;;;;4976790;28;20022;-72
2022/03/05 06:26:31;;;;;;;19.05;11.05;;;4.40;99.90;;;;;;4998167;28;20085;-73
2022/03/05 06:28:58;;;;;;;15.95;10.95;;;4.40;99.90;;;;;;4979602;28;20378;-73
2022/03/05 06:31:24;;;;;;;17.95;12.18;;;4.50;99.90;;;;;;4994803;28;20360;-72
2022/03/05 06:33:49;;;;;;;18.70;12.75;;;4.50;99.90;;;;;;4992097;28;20101;-72
2022/03/05 06:36:15;;;;;;;18.42;13.43;;;4.60;99.90;;;;;;4987377;28;20022;-72
2022/03/05 06:38:41;;;;;;;21.98;12.88;;;4.60;99.90;;;;;;4973922;28;20053;-72
2022/03/05 06:41:07;;;;;;;19.40;9.75;;;4.60;99.90;;;;;;4976921;28;20090;-72
2022/03/05 06:43:32;;;;;;;13.93;11.27;;;4.60;99.90;;;;;;4992462;28;20374;-73
2022/03/05 06:45:59;;;;;;;17.30;12.40;;;4.70;99.90;;;;;;4993024;28;20030;-72
2022/03/05 06:48:24;;;;;;;20.20;11.95;;;4.70;99.90;;;;;;4969663;28;20034;-72
2022/03/05 06:50:50;;;;;;;17.00;12.32;;;4.80;99.90;;;;;;4985938;28;20027;-70
2022/03/05 06:53:16;;;;;;;15.32;10.30;;;4.80;99.90;;;;;;4972720;28;20121;-74
2022/03/05 06:55:42;;;;;;;20.00;12.32;;;4.90;99.90;;;;;;4973355;28;20031;-72
2022/03/05 06:58:08;;;;;;;15.43;11.43;;;4.90;99.90;;;;;;4990651;28;20030;-73
2022/03/05 07:00:34;;;;;;;18.55;12.77;;;5.00;99.90;;;;;;4972116;28;20022;-72
2022/03/05 07:03:00;;;;;;;20.05;13.57;;;5.00;99.90;;;;;;4971860;28;20019;-72
2022/03/05 07:05:26;;;;;;;15.57;11.68;;;5.10;99.90;;;;;;4964453;28;20117;-72
2022/03/05 07:07:52;;;;;;;17.10;12.48;;;5.20;99.90;;;;;;4982809;28;20043;-72
2022/03/05 07:10:18;;;;;;;18.17;11.00;;;5.20;99.90;;;;;;4967308;28;20035;-72
2022/03/05 07:12:44;;;;;;;17.17;12.18;;;5.30;99.90;;;;;;4972108;28;20054;-72
2022/03/05 07:15:10;;;;;;;16.90;11.70;;;5.40;99.90;;;;;;4988872;28;20058;-72
2022/03/05 07:17:35;;;;;;;17.98;10.70;;;5.40;99.90;;;;;;4966652;28;20093;-71
2022/03/05 07:20:02;;;;;;;22.15;12.15;;;5.40;99.90;;;;;;4990289;28;20381;-71
2022/03/05 07:22:28;;;;;;;22.63;12.32;;;5.50;99.90;;;;;;4989946;28;20041;-71
2022/03/05 07:24:53;;;;;;;10.35;8.98;;;5.60;99.90;;;;;;4973412;28;20019;-71
2022/03/05 07:27:19;;;;;;;15.23;9.93;;;5.60;99.90;;;;;;4973240;28;20033;-72
2022/03/05 07:29:46;;;;;;;16.65;10.10;;;5.60;99.90;;;;;;4990164;28;20088;-73
2022/03/05 07:32:12;;;;;;;16.67;11.25;;;5.70;99.90;;;;;;4990616;28;20093;-71
2022/03/05 07:34:38;;;;;;;19.95;11.32;;;5.70;99.90;;;;;;4991385;28;20414;-72
2022/03/05 07:37:04;;;;;;;16.00;10.88;;;5.80;99.90;;;;;;4988846;28;20033;-71
2022/03/05 07:39:29;;;;;;;15.60;10.10;;;5.90;99.90;;;;;;4989908;28;20026;-74
2022/03/05 07:41:55;;;;;;;13.65;10.25;;;5.90;99.90;;;;;;4990181;28;20395;-73
2022/03/05 07:44:21;;;;;;;18.27;11.50;;;6.00;99.90;;;;;;4989581;28;20025;-72
2022/03/05 07:46:47;;;;;;;15.52;11.45;;;5.90;99.90;;;;;;4988617;28;20117;-73
2022/03/05 07:49:13;;;;;;;11.65;9.15;;;6.00;99.90;;;;;;4957984;28;20037;-75
2022/03/05 07:51:39;;;;;;;18.05;13.00;;;5.90;99.90;;;;;;4973942;28;20026;-73
2022/03/05 07:54:05;;;;;;;21.70;13.75;;;6.10;99.90;;;;;;4975329;28;20117;-74
2022/03/05 07:56:31;;;;;;;18.35;10.18;;;6.10;99.90;;;;;;4990142;28;20121;-75
2022/03/05 07:58:57;;;;;;;12.70;9.07;;;6.10;99.90;;;;;;4976181;28;20473;-73
2022/03/05 08:01:22;;;;;;;18.33;13.18;;;6.20;99.90;;;;;;4993466;28;20069;-74
2022/03/05 08:03:48;;;;;;;15.82;9.90;;;6.30;99.90;;;;;;4975912;28;20499;-74
2022/03/05 08:06:14;;;;;;;16.38;11.95;;;6.30;99.90;;;;;;4993092;28;20034;-75
2022/03/05 08:08:40;;;;;;;13.82;9.35;;;6.30;99.90;;;;;;4974112;28;20396;-75
2022/03/05 08:11:07;;;;;;;15.88;10.30;;;6.30;99.90;;;;;;4993188;28;20069;-74
2022/03/05 08:13:32;;;;;;;18.38;11.50;;;6.30;99.90;;;;;;4975687;28;20038;-74
2022/03/05 08:15:58;;;;;;;20.05;11.45;;;6.40;99.90;;;;;;4993912;28;20023;-74
2022/03/05 08:18:24;;;;;;;14.00;10.43;;;6.50;99.90;;;;;;4993924;28;20026;-73
2022/03/05 08:20:50;;;;;;;16.63;11.23;;;6.60;99.90;;;;;;4975095;28;20030;-73
2022/03/05 08:23:15;;;;;;;15.38;10.98;;;6.60;99.90;;;;;;4975311;28;20038;-74
2022/03/05 08:25:41;;;;;;;16.38;12.00;;;6.60;99.90;;;;;;4975570;28;20057;-73
2022/03/05 08:28:07;;;;;;;14.05;9.77;;;6.60;99.90;;;;;;4993574;28;20030;-74
2022/03/05 08:30:33;;;;;;;8.48;7.28;;;6.60;99.90;;;;;;4975103;28;20033;-73
2022/03/05 08:32:59;;;;;;;12.23;9.43;;;6.70;99.90;;;;;;4975245;28;20023;-73
2022/03/05 08:35:25;;;;;;;13.90;9.73;;;6.80;99.90;;;;;;4992993;28;20105;-75
2022/03/05 08:37:51;;;;;;;15.88;10.98;;;6.80;99.90;;;;;;4975094;28;20027;-74
2022/03/05 08:40:18;;;;;;;15.18;9.52;;;6.80;99.90;;;;;;4974836;28;20026;-73
2022/03/05 08:42:45;;;;;;;14.00;10.50;;;6.70;99.90;;;;;;4975012;28;20481;-75
2022/03/05 08:45:11;;;;;;;12.60;10.02;;;6.70;99.90;;;;;;4975231;28;20074;-73
2022/03/05 08:47:37;;;;;;;14.05;9.93;;;6.70;99.90;;;;;;4987075;28;20037;-73
2022/03/05 08:50:04;;;;;;;12.50;9.50;;;6.70;99.90;;;;;;4975079;28;20065;-75
2022/03/05 08:52:35;;;;;;;9.05;6.35;;;6.80;99.90;;;;;;4980928;28;20040;-74
2022/03/05 08:55:04;;;;;;;14.68;10.80;;;6.80;99.90;;;;;;4992253;28;20462;-74
2022/03/05 08:57:30;;;;;;;15.18;9.10;;;6.80;99.80;;;;;;4992217;28;20018;-73
2022/03/05 08:59:56;;;;;;;14.25;7.43;;;6.90;99.80;;;;;;4974710;28;20022;-73
2022/03/05 09:02:22;;;;;;;9.18;6.68;;;6.90;99.20;;;;;;4974518;28;20022;-73
2022/03/05 09:04:47;;;;;;;12.73;10.02;;;6.90;99.00;;;;;;4970510;28;20030;-73
2022/03/05 09:07:13;;;;;;;19.60;10.90;;;6.90;99.40;;;;;;4971231;28;20038;-74
2022/03/05 09:09:39;;;;;;;29.65;8.27;;;7.10;99.50;;;;;;4992049;28;20027;-73
2022/03/05 09:12:05;;;;;;;14.70;9.98;;;7.20;99.60;;;;;;4991868;28;20034;-73
2022/03/05 09:14:30;;;;;;;14.90;10.70;;;7.30;99.90;;;;;;4991913;28;20401;-73
2022/03/05 09:16:56;;;;;;;14.52;8.93;;;7.40;99.90;;;;;;4991988;28;20018;-73
2022/03/05 09:19:22;;;;;;;13.57;10.00;;;7.50;99.70;;;;;;4991996;28;20029;-73
2022/03/05 09:21:48;;;;;;;12.68;9.75;;;7.60;98.80;;;;;;4992189;28;20031;-73
2022/03/05 09:24:14;;;;;;;10.73;8.73;;;7.20;97.60;;;;;;4991580;28;20045;-73
2022/03/05 09:26:40;;;;;;;13.95;9.73;;;7.00;97.80;;;;;;4974563;28;20053;-73
2022/03/05 09:29:06;;;;;;;11.55;8.00;;;7.10;98.30;;;;;;4974046;28;20022;-74
2022/03/05 09:31:32;;;;;;;17.17;10.52;;;7.20;98.20;;;;;;4991518;28;20115;-73
2022/03/05 09:33:58;;;;;;;16.00;10.23;;;7.10;98.80;;;;;;4991254;28;20026;-74
2022/03/05 09:36:23;;;;;;;16.20;9.60;;;7.30;99.10;;;;;;4973808;28;20105;-72
2022/03/05 09:38:49;;;;;;;15.35;10.23;;;7.40;98.50;;;;;;4987862;28;20110;-69
2022/03/05 09:41:16;;;;;;;15.20;11.13;;;7.50;98.60;;;;;;5000021;28;20384;-68
2022/03/05 09:43:43;;;;;;;17.63;11.55;;;7.50;98.80;;;;;;4977817;28;20113;-69
2022/03/05 09:46:10;;;;;;;12.85;11.25;;;7.60;98.60;;;;;;4994630;28;20337;-69
2022/03/05 09:48:39;;;;;;;17.25;10.35;;;7.40;98.90;;;;;;4974857;28;20019;-68
2022/03/05 09:51:05;;;;;;;16.83;11.57;;;7.30;99.10;;;;;;4974173;28;20022;-68
2022/03/05 09:53:32;;;;;;;15.90;11.18;;;7.50;99.80;;;;;;4990869;28;20351;-68
2022/03/05 09:56:20;;;;;;;11.63;9.80;;;7.70;99.00;;;;;;4992069;28;20393;-65
2022/03/05 09:58:54;;;;;;;12.25;9.63;;;7.60;98.20;;;;;;4999404;28;20495;-65
2022/03/05 10:01:26;;;;;;;13.20;8.60;;;7.50;98.60;;;;;;4973207;28;20366;-65
2022/03/05 10:04:02;;;;;;;15.95;10.73;;;7.50;99.10;;;;;;4973294;28;20496;-64
2022/03/05 10:06:32;;;;;;;19.67;10.57;;;7.50;98.90;;;;;;4988430;28;20073;-64
2022/03/05 10:08:59;;;;;;;15.40;10.13;;;7.40;98.90;;;;;;4973923;28;20069;-66
2022/03/05 10:11:40;;;;;;;13.52;10.13;;;7.60;98.60;;;;;;4973841;28;20030;-65
2022/03/05 10:14:18;;;;;;;14.90;11.35;;;7.70;98.80;;;;;;4989087;28;20030;-65
2022/03/05 10:16:44;;;;;;;9.68;8.10;;;7.30;98.10;;;;;;4987572;28;20105;-65
2022/03/05 10:19:16;;;;;;;14.18;9.55;;;7.30;98.30;;;;;;4972848;28;20117;-66
2022/03/05 10:22:05;;;;;;;26.50;9.02;;;7.20;98.90;;;;;;4989587;28;20575;-64
2022/03/05 10:24:39;;;;;;;13.50;8.75;;;7.20;98.50;;;;;;4972659;28;20022;-65
2022/03/05 10:27:07;;;;;;;11.55;9.27;;;7.10;98.50;;;;;;4971325;28;20038;-65
2022/03/05 10:29:36;;;;;;;14.68;11.18;;;7.00;98.60;;;;;;4990342;28;20037;-64
2022/03/05 10:32:05;;;;;;;14.60;11.00;;;7.00;99.10;;;;;;4975111;28;20026;-65
2022/03/05 10:34:48;;;;;;;11.63;9.82;;;7.20;99.10;;;;;;4991764;28;20026;-64
2022/03/05 10:37:14;;;;;;;14.73;10.75;;;7.40;98.90;;;;;;4992589;28;20565;-68
2022/03/05 10:39:40;;;;;;;17.17;11.25;;;7.50;99.00;;;;;;4974695;28;20121;-66
2022/03/05 10:42:25;;;;;;;18.23;10.95;;;7.60;98.70;;;;;;4989088;28;20030;-67
2022/03/05 10:45:05;;;;;;;14.07;11.15;;;7.60;98.70;;;;;;4975129;28;20022;-67
2022/03/05 10:47:36;;;;;;;14.43;9.63;;;7.60;98.10;;;;;;5001906;28;20026;-67
2022/03/05 10:50:06;;;;;;;15.63;10.93;;;7.70;98.80;;;;;;4990956;28;20057;-66
2022/03/05 10:52:44;;;;;;;15.13;11.25;;;7.70;98.40;;;;;;4989309;28;20563;-65
2022/03/05 10:55:21;;;;;;;14.88;10.77;;;7.70;98.60;;;;;;4985662;28;20110;-68
2022/03/05 10:58:01;;;;;;;18.85;11.43;;;7.80;98.30;;;;;;4990322;28;20018;-66
2022/03/05 11:00:28;;;;;;;15.68;11.07;;;8.10;98.60;;;;;;4986359;28;20038;-66
2022/03/05 11:03:00;;;;;;;17.10;12.70;;;8.20;98.80;;;;;;4966024;28;20029;-64
2022/03/05 11:05:27;;;;;;;13.38;9.25;;;8.20;98.50;;;;;;4991730;28;20084;-65
2022/03/05 11:07:56;;;;;;;15.23;11.55;;;7.80;99.30;;;;;;4995735;28;20084;-66
2022/03/05 11:10:26;;;;;;;19.73;12.73;;;7.80;99.40;;;;;;4990839;28;20141;-66
2022/03/05 11:12:56;;;;;;;19.58;13.23;;;7.90;99.70;;;;;;4989318;28;20354;-65
2022/03/05 11:15:23;;;;;;;15.45;11.95;;;7.90;99.40;;;;;;4990438;28;20430;-65
2022/03/05 11:17:49;;;;;;;13.27;10.07;;;8.00;99.70;;;;;;4989262;28;20433;-65
2022/03/05 11:20:15;;;;;;;17.13;13.45;;;7.60;98.30;;;;;;4972185;28;20062;-66
2022/03/05 11:22:44;;;;;;;19.17;12.63;;;7.20;99.20;;;;;;4987250;28;20065;-67
2022/03/05 11:25:16;;;;;;;14.88;11.77;;;7.20;99.10;;;;;;4996051;28;20026;-66
2022/03/05 11:27:57;;;;;;;15.18;10.73;;;7.10;98.10;;;;;;4996637;28;20022;-65
2022/03/05 11:30:22;;;;;;;18.17;11.88;;;7.20;99.10;;;;;;5000277;28;20026;-64
2022/03/05 11:32:48;;;;;;;16.20;12.18;;;7.30;99.80;;;;;;5001844;28;20450;-65
2022/03/05 11:35:18;;;;;;;18.63;13.55;;;7.30;99.90;;;;;;4994455;28;20034;-66
2022/03/05 11:37:44;;;;;;;17.35;11.23;;;7.30;99.90;;;;;;4992480;28;20465;-66
2022/03/05 11:40:39;;;;;;;25.48;14.07;;;7.40;99.90;;;;;;4993308;28;20041;-66
2022/03/05 11:43:22;;;;;;;15.50;12.95;;;7.40;99.90;;;;;;4992675;28;20022;-64
2022/03/05 11:46:00;;;;;;;19.27;14.10;;;7.30;99.90;;;;;;4994215;28;20027;-65
2022/03/05 11:48:28;;;;;;;16.55;13.07;;;7.40;99.90;;;;;;4995020;28;20093;-66
2022/03/05 11:50:57;;;;;;;21.95;13.68;;;7.60;99.90;;;;;;4993223;28;20067;-66
2022/03/05 11:53:23;;;;;;;18.95;13.05;;;7.40;99.90;;;;;;4976742;28;20026;-66
2022/03/05 11:55:49;;;;;;;22.02;14.98;;;7.40;99.90;;;;;;4994495;28;20037;-64
2022/03/05 11:58:16;;;;;;;19.92;15.15;;;7.40;99.90;;;;;;4977174;28;20154;-65
2022/03/05 12:00:44;;;;;;;19.75;14.02;;;7.50;99.90;;;;;;4990824;28;20028;-66
2022/03/05 12:03:20;;;;;;;19.45;13.52;;;7.70;99.90;;;;;;4994226;28;20023;-65
2022/03/05 12:05:47;;;;;;;20.23;15.00;;;7.80;99.90;;;;;;4977562;28;20030;-65
2022/03/05 12:08:35;;;;;;;23.88;14.80;;;8.00;99.90;;;;;;4994692;28;20073;-65
2022/03/05 12:11:12;;;;;;;18.45;13.52;;;7.40;98.60;;;;;;4965588;28;20061;-65
2022/03/05 12:13:43;;;;;;;22.48;14.68;;;7.50;99.30;;;;;;4969449;28;20477;-65
2022/03/05 12:16:17;;;;;;;19.97;14.60;;;7.70;99.50;;;;;;4992906;28;20037;-64
2022/03/05 12:18:44;;;;;;;22.15;13.23;;;7.70;98.80;;;;;;4992277;28;20042;-66
2022/03/05 12:21:11;;;;;;;20.42;15.02;;;7.40;99.70;;;;;;4991980;28;20033;-66
2022/03/05 12:23:36;;;;;;;21.20;14.23;;;7.30;99.90;;;;;;4974535;28;20038;-65
2022/03/05 12:26:05;;;;;;;20.15;14.40;;;7.60;99.90;;;;;;4993565;28;20026;-64
2022/03/05 12:28:42;;;;;;;21.40;14.43;;;7.70;99.90;;;;;;4990618;28;20030;-65
2022/03/05 12:31:20;;;;;;;22.00;16.60;;;7.60;99.90;;;;;;4972889;28;20058;-65
2022/03/05 12:33:49;;;;;;;25.10;15.18;;;7.70;99.80;;;;;;4974787;28;20031;-65
2022/03/05 12:36:23;;;;;;;23.25;15.90;;;7.70;99.90;;;;;;4981907;28;20397;-65
2022/03/05 12:38:58;;;;;;;21.83;15.57;;;7.70;99.90;;;;;;4973919;28;20022;-65
2022/03/05 12:41:25;;;;;;;20.35;14.02;;;7.70;99.90;;;;;;4974227;28;20115;-66